< < Back
Terminal Aerodrome Forecast


Current Version              Previous Versions:   1  2  3  4  5  6  7  8  9  

Terminal Aerodrome Forecast

792
FTUS42 KTAE 310959 AAB
TAFABY
TAF AMD
KABY 310959Z 3110/0106 00000KT 1/2SM FG OVC002
     FM311500 25009KT P6SM BKN040
     FM010000 24007KT P6SM BKN100=



Latest METAR

872
SAUS70 KWBC 312100 RRC
MTRABY
METAR KABY 312053Z 22010KT 10SM FEW060 FEW095 28/15 A2998 RMK AO2 LTG
DSNT NE SLP151 60000 T02780150 57039


USA.gov is the U.S. government's official web portal to all federal, state and local government web resources and services.